sensor_id;sensor_type;location;lat;lon;timestamp;temperature;humidity
5588;DHT22;2816;49.778;9.986;2023-05-07T00:00:47;14.40;99.90
5588;DHT22;2816;49.778;9.986;2023-05-07T00:03:15;14.40;99.90
5588;DHT22;2816;49.778;9.986;2023-05-07T00:05:43;14.30;99.90
5588;DHT22;2816;49.778;9.986;2023-05-07T00:08:10;14.40;99.90
5588;DHT22;2816;49.778;9.986;2023-05-07T00:10:37;14.40;99.90
5588;DHT22;2816;49.778;9.986;2023-05-07T00:13:04;14.40;99.90
5588;DHT22;2816;49.778;9.986;2023-05-07T00:15:31;14.40;99.90
5588;DHT22;2816;49.778;9.986;2023-05-07T00:17:58;14.40;99.90
5588;DHT22;2816;49.778;9.986;2023-05-07T00:20:25;14.40;99.90
5588;DHT22;2816;49.778;9.986;2023-05-07T00:22:53;14.40;99.90
5588;DHT22;2816;49.778;9.986;2023-05-07T00:25:20;14.40;99.90
5588;DHT22;2816;49.778;9.986;2023-05-07T00:27:47;14.40;99.90
5588;DHT22;2816;49.778;9.986;2023-05-07T00:30:14;14.40;99.90
5588;DHT22;2816;49.778;9.986;2023-05-07T00:32:41;14.40;99.90
5588;DHT22;2816;49.778;9.986;2023-05-07T00:35:11;14.40;99.90
5588;DHT22;2816;49.778;9.986;2023-05-07T00:37:38;14.40;99.90
5588;DHT22;2816;49.778;9.986;2023-05-07T00:40:07;14.30;99.90
5588;DHT22;2816;49.778;9.986;2023-05-07T00:42:35;14.30;99.90
5588;DHT22;2816;49.778;9.986;2023-05-07T00:45:02;14.30;99.90
5588;DHT22;2816;49.778;9.986;2023-05-07T00:47:29;14.30;99.90
5588;DHT22;2816;49.778;9.986;2023-05-07T00:49:57;14.30;99.90
5588;DHT22;2816;49.778;9.986;2023-05-07T00:52:25;14.30;99.90
5588;DHT22;2816;49.778;9.986;2023-05-07T00:54:52;14.20;99.90
5588;DHT22;2816;49.778;9.986;2023-05-07T00:57:22;14.30;99.90
5588;DHT22;2816;49.778;9.986;2023-05-07T00:59:51;14.20;99.90
5588;DHT22;2816;49.778;9.986;2023-05-07T01:02:18;14.20;99.90
5588;DHT22;2816;49.778;9.986;2023-05-07T01:04:45;14.20;99.90
5588;DHT22;2816;49.778;9.986;2023-05-07T01:07:12;14.10;99.90
5588;DHT22;2816;49.778;9.986;2023-05-07T01:09:40;14.10;99.90
5588;DHT22;2816;49.778;9.986;2023-05-07T01:12:07;14.10;99.90
5588;DHT22;2816;49.778;9.986;2023-05-07T01:14:36;14.00;99.90
5588;DHT22;2816;49.778;9.986;2023-05-07T01:17:03;14.00;99.90
5588;DHT22;2816;49.778;9.986;2023-05-07T01:19:30;13.90;99.90
5588;DHT22;2816;49.778;9.986;2023-05-07T01:22:02;13.90;99.90
5588;DHT22;2816;49.778;9.986;2023-05-07T01:24:32;13.80;99.90
5588;DHT22;2816;49.778;9.986;2023-05-07T01:27:00;13.70;99.90
5588;DHT22;2816;49.778;9.986;2023-05-07T01:29:28;13.70;99.90
5588;DHT22;2816;49.778;9.986;2023-05-07T01:31:57;13.70;99.90
5588;DHT22;2816;49.778;9.986;2023-05-07T01:34:25;13.60;99.90
5588;DHT22;2816;49.778;9.986;2023-05-07T01:36:54;13.60;99.90
5588;DHT22;2816;49.778;9.986;2023-05-07T01:39:24;13.50;99.90
5588;DHT22;2816;49.778;9.986;2023-05-07T01:41:53;13.50;99.90
5588;DHT22;2816;49.778;9.986;2023-05-07T01:44:21;13.50;99.90
5588;DHT22;2816;49.778;9.986;2023-05-07T01:46:48;13.40;99.90
5588;DHT22;2816;49.778;9.986;2023-05-07T01:49:16;13.40;99.90
5588;DHT22;2816;49.778;9.986;2023-05-07T01:51:43;13.30;99.90
5588;DHT22;2816;49.778;9.986;2023-05-07T01:54:10;13.30;99.90
5588;DHT22;2816;49.778;9.986;2023-05-07T01:56:37;13.20;99.90
5588;DHT22;2816;49.778;9.986;2023-05-07T01:59:06;13.20;99.90
5588;DHT22;2816;49.778;9.986;2023-05-07T02:01:33;13.20;99.90
5588;DHT22;2816;49.778;9.986;2023-05-07T02:04:00;13.10;99.90
5588;DHT22;2816;49.778;9.986;2023-05-07T02:06:26;13.10;99.90
5588;DHT22;2816;49.778;9.986;2023-05-07T02:08:53;13.00;99.90
5588;DHT22;2816;49.778;9.986;2023-05-07T02:11:20;13.00;99.90
5588;DHT22;2816;49.778;9.986;2023-05-07T02:13:47;13.00;99.90
5588;DHT22;2816;49.778;9.986;2023-05-07T02:16:15;12.90;99.90
5588;DHT22;2816;49.778;9.986;2023-05-07T02:18:42;12.90;99.90
5588;DHT22;2816;49.778;9.986;2023-05-07T02:21:09;12.90;99.90
5588;DHT22;2816;49.778;9.986;2023-05-07T02:23:36;12.80;99.90
5588;DHT22;2816;49.778;9.986;2023-05-07T02:26:04;12.80;99.90
5588;DHT22;2816;49.778;9.986;2023-05-07T02:28:31;12.70;99.90
5588;DHT22;2816;49.778;9.986;2023-05-07T02:31:01;12.70;99.90
5588;DHT22;2816;49.778;9.986;2023-05-07T02:33:30;12.70;99.90
5588;DHT22;2816;49.778;9.986;2023-05-07T02:35:57;12.70;99.90
5588;DHT22;2816;49.778;9.986;2023-05-07T02:38:31;12.80;99.90
5588;DHT22;2816;49.778;9.986;2023-05-07T02:40:58;12.70;99.90
5588;DHT22;2816;49.778;9.986;2023-05-07T02:43:25;12.80;99.90
5588;DHT22;2816;49.778;9.986;2023-05-07T02:46:00;12.80;99.90
5588;DHT22;2816;49.778;9.986;2023-05-07T02:48:29;12.80;99.90
5588;DHT22;2816;49.778;9.986;2023-05-07T02:50:56;12.80;99.90
5588;DHT22;2816;49.778;9.986;2023-05-07T02:53:23;12.80;99.90
5588;DHT22;2816;49.778;9.986;2023-05-07T02:55:52;12.90;99.90
5588;DHT22;2816;49.778;9.986;2023-05-07T02:58:19;12.90;99.90
5588;DHT22;2816;49.778;9.986;2023-05-07T03:00:46;12.90;99.90
5588;DHT22;2816;49.778;9.986;2023-05-07T03:03:13;12.90;99.90
5588;DHT22;2816;49.778;9.986;2023-05-07T03:05:42;12.90;99.90
5588;DHT22;2816;49.778;9.986;2023-05-07T03:08:09;12.90;99.90
5588;DHT22;2816;49.778;9.986;2023-05-07T03:10:36;12.80;99.90
5588;DHT22;2816;49.778;9.986;2023-05-07T03:13:04;12.90;99.90
5588;DHT22;2816;49.778;9.986;2023-05-07T03:15:31;12.90;99.90
5588;DHT22;2816;49.778;9.986;2023-05-07T03:17:58;12.90;99.90
5588;DHT22;2816;49.778;9.986;2023-05-07T03:20:25;12.90;99.90
5588;DHT22;2816;49.778;9.986;2023-05-07T03:22:53;12.80;99.90
5588;DHT22;2816;49.778;9.986;2023-05-07T03:25:20;12.90;99.90
5588;DHT22;2816;49.778;9.986;2023-05-07T03:27:47;12.80;99.90
5588;DHT22;2816;49.778;9.986;2023-05-07T03:30:14;12.80;99.90
5588;DHT22;2816;49.778;9.986;2023-05-07T03:32:41;12.80;99.90
5588;DHT22;2816;49.778;9.986;2023-05-07T03:35:08;12.80;99.90
5588;DHT22;2816;49.778;9.986;2023-05-07T03:37:35;12.80;99.90
5588;DHT22;2816;49.778;9.986;2023-05-07T03:40:05;12.80;99.90
5588;DHT22;2816;49.778;9.986;2023-05-07T03:42:32;12.80;99.90
5588;DHT22;2816;49.778;9.986;2023-05-07T03:44:59;12.80;99.90
5588;DHT22;2816;49.778;9.986;2023-05-07T03:47:25;12.80;99.90
5588;DHT22;2816;49.778;9.986;2023-05-07T03:49:52;12.80;99.90
5588;DHT22;2816;49.778;9.986;2023-05-07T03:52:20;12.80;99.90
5588;DHT22;2816;49.778;9.986;2023-05-07T03:54:52;12.80;99.90
5588;DHT22;2816;49.778;9.986;2023-05-07T03:57:20;12.80;99.90
5588;DHT22;2816;49.778;9.986;2023-05-07T03:59:47;12.80;99.90
5588;DHT22;2816;49.778;9.986;2023-05-07T04:02:14;12.80;99.90
5588;DHT22;2816;49.778;9.986;2023-05-07T04:04:41;12.90;99.90
5588;DHT22;2816;49.778;9.986;2023-05-07T04:07:08;12.90;99.90
5588;DHT22;2816;49.778;9.986;2023-05-07T04:09:35;12.90;99.90
5588;DHT22;2816;49.778;9.986;2023-05-07T04:12:02;12.90;99.90
5588;DHT22;2816;49.778;9.986;2023-05-07T04:14:31;12.80;99.90
5588;DHT22;2816;49.778;9.986;2023-05-07T04:16:58;12.80;99.90
5588;DHT22;2816;49.778;9.986;2023-05-07T04:19:25;12.70;99.90
5588;DHT22;2816;49.778;9.986;2023-05-07T04:21:52;12.80;99.90
5588;DHT22;2816;49.778;9.986;2023-05-07T04:24:19;12.80;99.90
5588;DHT22;2816;49.778;9.986;2023-05-07T04:26:46;12.90;99.90
5588;DHT22;2816;49.778;9.986;2023-05-07T04:29:13;12.90;99.90
5588;DHT22;2816;49.778;9.986;2023-05-07T04:31:41;12.90;99.90
5588;DHT22;2816;49.778;9.986;2023-05-07T04:34:09;13.00;99.90
5588;DHT22;2816;49.778;9.986;2023-05-07T04:36:37;13.00;99.90
5588;DHT22;2816;49.778;9.986;2023-05-07T04:39:04;13.00;99.90
5588;DHT22;2816;49.778;9.986;2023-05-07T04:41:32;13.00;99.90
5588;DHT22;2816;49.778;9.986;2023-05-07T04:43:59;13.00;99.90
5588;DHT22;2816;49.778;9.986;2023-05-07T04:46:26;13.00;99.90
5588;DHT22;2816;49.778;9.986;2023-05-07T04:48:54;12.90;99.90
5588;DHT22;2816;49.778;9.986;2023-05-07T04:51:21;12.90;99.90
5588;DHT22;2816;49.778;9.986;2023-05-07T04:53:48;12.90;99.90
5588;DHT22;2816;49.778;9.986;2023-05-07T04:56:15;12.90;99.90
5588;DHT22;2816;49.778;9.986;2023-05-07T04:58:42;12.90;99.90
5588;DHT22;2816;49.778;9.986;2023-05-07T05:01:08;13.00;99.90
5588;DHT22;2816;49.778;9.986;2023-05-07T05:03:36;13.00;99.90
5588;DHT22;2816;49.778;9.986;2023-05-07T05:06:04;13.10;99.90
5588;DHT22;2816;49.778;9.986;2023-05-07T05:08:31;13.10;99.90
5588;DHT22;2816;49.778;9.986;2023-05-07T05:10:58;13.20;99.90
5588;DHT22;2816;49.778;9.986;2023-05-07T05:13:27;13.20;99.90
5588;DHT22;2816;49.778;9.986;2023-05-07T05:15:53;13.30;99.90
5588;DHT22;2816;49.778;9.986;2023-05-07T05:18:21;13.30;99.90
5588;DHT22;2816;49.778;9.986;2023-05-07T05:20:48;13.30;99.90
5588;DHT22;2816;49.778;9.986;2023-05-07T05:23:16;13.40;99.90
5588;DHT22;2816;49.778;9.986;2023-05-07T05:25:43;13.40;99.90
5588;DHT22;2816;49.778;9.986;2023-05-07T05:28:10;13.40;99.90
5588;DHT22;2816;49.778;9.986;2023-05-07T05:30:37;13.40;99.90
5588;DHT22;2816;49.778;9.986;2023-05-07T05:33:04;13.40;99.90
5588;DHT22;2816;49.778;9.986;2023-05-07T05:35:30;13.50;99.90
5588;DHT22;2816;49.778;9.986;2023-05-07T05:37:58;13.50;99.90
5588;DHT22;2816;49.778;9.986;2023-05-07T05:40:26;13.60;99.90
5588;DHT22;2816;49.778;9.986;2023-05-07T05:42:53;13.60;99.90
5588;DHT22;2816;49.778;9.986;2023-05-07T05:45:20;13.60;99.90
5588;DHT22;2816;49.778;9.986;2023-05-07T05:47:47;13.70;99.90
5588;DHT22;2816;49.778;9.986;2023-05-07T05:50:14;13.80;99.90
5588;DHT22;2816;49.778;9.986;2023-05-07T05:52:40;13.80;99.90
5588;DHT22;2816;49.778;9.986;2023-05-07T05:55:08;13.80;99.90
5588;DHT22;2816;49.778;9.986;2023-05-07T05:57:36;13.80;99.90
5588;DHT22;2816;49.778;9.986;2023-05-07T06:00:04;13.80;99.90
5588;DHT22;2816;49.778;9.986;2023-05-07T06:02:32;13.90;99.90
5588;DHT22;2816;49.778;9.986;2023-05-07T06:04:58;13.90;99.90
5588;DHT22;2816;49.778;9.986;2023-05-07T06:07:25;13.90;99.90
5588;DHT22;2816;49.778;9.986;2023-05-07T06:09:52;14.00;99.90
5588;DHT22;2816;49.778;9.986;2023-05-07T06:12:19;14.00;99.90
5588;DHT22;2816;49.778;9.986;2023-05-07T06:14:47;13.90;99.90
5588;DHT22;2816;49.778;9.986;2023-05-07T06:17:14;14.00;99.90
5588;DHT22;2816;49.778;9.986;2023-05-07T06:19:41;14.00;99.90
5588;DHT22;2816;49.778;9.986;2023-05-07T06:22:08;14.00;99.90
5588;DHT22;2816;49.778;9.986;2023-05-07T06:24:35;14.00;99.90
5588;DHT22;2816;49.778;9.986;2023-05-07T06:27:02;14.10;99.90
5588;DHT22;2816;49.778;9.986;2023-05-07T06:29:29;14.10;99.90
5588;DHT22;2816;49.778;9.986;2023-05-07T06:32:06;14.10;99.90
5588;DHT22;2816;49.778;9.986;2023-05-07T06:34:33;14.10;99.90
5588;DHT22;2816;49.778;9.986;2023-05-07T06:37:00;14.20;99.90
5588;DHT22;2816;49.778;9.986;2023-05-07T06:39:27;14.30;99.90
5588;DHT22;2816;49.778;9.986;2023-05-07T06:41:54;14.30;99.90
5588;DHT22;2816;49.778;9.986;2023-05-07T06:44:21;14.40;99.90
5588;DHT22;2816;49.778;9.986;2023-05-07T06:46:48;14.40;99.90
5588;DHT22;2816;49.778;9.986;2023-05-07T06:49:16;14.40;99.90
5588;DHT22;2816;49.778;9.986;2023-05-07T06:51:43;14.50;99.90
5588;DHT22;2816;49.778;9.986;2023-05-07T06:54:10;14.60;99.90
5588;DHT22;2816;49.778;9.986;2023-05-07T06:56:36;14.70;99.90
5588;DHT22;2816;49.778;9.986;2023-05-07T06:59:03;14.90;99.90
5588;DHT22;2816;49.778;9.986;2023-05-07T07:01:30;14.90;99.90
5588;DHT22;2816;49.778;9.986;2023-05-07T07:03:57;14.90;99.90
5588;DHT22;2816;49.778;9.986;2023-05-07T07:06:26;14.90;99.90
5588;DHT22;2816;49.778;9.986;2023-05-07T07:08:52;14.90;99.90
5588;DHT22;2816;49.778;9.986;2023-05-07T07:11:19;15.00;99.90
5588;DHT22;2816;49.778;9.986;2023-05-07T07:13:46;15.00;99.90
5588;DHT22;2816;49.778;9.986;2023-05-07T07:16:13;15.10;99.90
5588;DHT22;2816;49.778;9.986;2023-05-07T07:18:40;15.00;99.90
5588;DHT22;2816;49.778;9.986;2023-05-07T07:21:07;15.10;99.90
5588;DHT22;2816;49.778;9.986;2023-05-07T07:23:35;15.10;99.90
5588;DHT22;2816;49.778;9.986;2023-05-07T07:26:02;15.20;99.90
5588;DHT22;2816;49.778;9.986;2023-05-07T07:28:29;15.30;99.90
5588;DHT22;2816;49.778;9.986;2023-05-07T07:30:56;15.30;99.90
5588;DHT22;2816;49.778;9.986;2023-05-07T07:33:23;15.40;99.90
5588;DHT22;2816;49.778;9.986;2023-05-07T07:35:50;15.40;99.90
5588;DHT22;2816;49.778;9.986;2023-05-07T07:38:17;15.50;99.90
5588;DHT22;2816;49.778;9.986;2023-05-07T07:40:47;15.60;99.90
5588;DHT22;2816;49.778;9.986;2023-05-07T07:43:13;15.70;99.90
5588;DHT22;2816;49.778;9.986;2023-05-07T07:45:41;15.60;99.90
5588;DHT22;2816;49.778;9.986;2023-05-07T07:48:07;15.70;99.90
5588;DHT22;2816;49.778;9.986;2023-05-07T07:50:34;15.90;99.90
5588;DHT22;2816;49.778;9.986;2023-05-07T07:53:01;16.00;99.90
5588;DHT22;2816;49.778;9.986;2023-05-07T07:55:28;16.00;99.90
5588;DHT22;2816;49.778;9.986;2023-05-07T07:57:58;15.90;99.90
5588;DHT22;2816;49.778;9.986;2023-05-07T08:00:24;16.00;99.90
5588;DHT22;2816;49.778;9.986;2023-05-07T08:02:51;15.80;99.90
5588;DHT22;2816;49.778;9.986;2023-05-07T08:05:18;15.90;99.90
5588;DHT22;2816;49.778;9.986;2023-05-07T08:07:45;16.00;99.90
5588;DHT22;2816;49.778;9.986;2023-05-07T08:10:17;16.10;99.90
5588;DHT22;2816;49.778;9.986;2023-05-07T08:12:46;16.10;99.90
5588;DHT22;2816;49.778;9.986;2023-05-07T08:15:16;16.30;99.90
5588;DHT22;2816;49.778;9.986;2023-05-07T08:17:43;16.20;99.90
5588;DHT22;2816;49.778;9.986;2023-05-07T08:20:10;16.30;99.90
5588;DHT22;2816;49.778;9.986;2023-05-07T08:22:37;16.30;99.90
5588;DHT22;2816;49.778;9.986;2023-05-07T08:25:05;16.40;99.90
5588;DHT22;2816;49.778;9.986;2023-05-07T08:27:32;16.40;99.90
5588;DHT22;2816;49.778;9.986;2023-05-07T08:29:58;16.50;99.90
5588;DHT22;2816;49.778;9.986;2023-05-07T08:32:27;16.60;99.90
5588;DHT22;2816;49.778;9.986;2023-05-07T08:34:54;16.60;99.90
5588;DHT22;2816;49.778;9.986;2023-05-07T08:37:21;16.50;99.90
5588;DHT22;2816;49.778;9.986;2023-05-07T08:39:47;16.60;99.90
5588;DHT22;2816;49.778;9.986;2023-05-07T08:42:16;16.60;99.90
5588;DHT22;2816;49.778;9.986;2023-05-07T08:44:45;16.70;99.90
5588;DHT22;2816;49.778;9.986;2023-05-07T08:47:13;16.70;99.90
5588;DHT22;2816;49.778;9.986;2023-05-07T08:49:42;16.70;99.90
5588;DHT22;2816;49.778;9.986;2023-05-07T08:52:08;16.70;99.90
5588;DHT22;2816;49.778;9.986;2023-05-07T08:54:37;16.60;99.90
5588;DHT22;2816;49.778;9.986;2023-05-07T08:57:04;16.70;99.90
5588;DHT22;2816;49.778;9.986;2023-05-07T08:59:31;16.80;99.90
5588;DHT22;2816;49.778;9.986;2023-05-07T09:01:58;16.80;99.90
5588;DHT22;2816;49.778;9.986;2023-05-07T09:04:25;16.80;99.90
5588;DHT22;2816;49.778;9.986;2023-05-07T09:06:53;16.90;99.90
5588;DHT22;2816;49.778;9.986;2023-05-07T09:09:22;17.00;99.90
5588;DHT22;2816;49.778;9.986;2023-05-07T09:11:49;16.90;99.90
5588;DHT22;2816;49.778;9.986;2023-05-07T09:14:24;17.00;99.90
5588;DHT22;2816;49.778;9.986;2023-05-07T09:16:52;17.10;99.90
5588;DHT22;2816;49.778;9.986;2023-05-07T09:19:22;17.20;99.90
5588;DHT22;2816;49.778;9.986;2023-05-07T09:21:49;17.20;99.90
5588;DHT22;2816;49.778;9.986;2023-05-07T09:24:18;17.20;99.90
5588;DHT22;2816;49.778;9.986;2023-05-07T09:26:45;17.20;99.90
5588;DHT22;2816;49.778;9.986;2023-05-07T09:29:12;17.20;99.90
5588;DHT22;2816;49.778;9.986;2023-05-07T09:31:39;17.30;99.90
5588;DHT22;2816;49.778;9.986;2023-05-07T09:34:06;17.60;99.90
5588;DHT22;2816;49.778;9.986;2023-05-07T09:36:33;17.80;99.90
5588;DHT22;2816;49.778;9.986;2023-05-07T09:39:01;17.90;99.90
5588;DHT22;2816;49.778;9.986;2023-05-07T09:41:30;17.90;99.90
5588;DHT22;2816;49.778;9.986;2023-05-07T09:43:58;17.90;99.90
5588;DHT22;2816;49.778;9.986;2023-05-07T09:46:30;17.90;99.90
5588;DHT22;2816;49.778;9.986;2023-05-07T09:48:57;18.10;99.90
5588;DHT22;2816;49.778;9.986;2023-05-07T09:51:29;18.30;99.90
5588;DHT22;2816;49.778;9.986;2023-05-07T09:53:57;18.10;99.90
5588;DHT22;2816;49.778;9.986;2023-05-07T09:56:26;18.20;99.90
5588;DHT22;2816;49.778;9.986;2023-05-07T09:58:56;18.30;99.90
5588;DHT22;2816;49.778;9.986;2023-05-07T10:01:25;18.30;99.90
5588;DHT22;2816;49.778;9.986;2023-05-07T10:03:53;18.50;99.90
5588;DHT22;2816;49.778;9.986;2023-05-07T10:06:20;18.70;99.90
5588;DHT22;2816;49.778;9.986;2023-05-07T10:08:49;18.90;99.90
5588;DHT22;2816;49.778;9.986;2023-05-07T10:11:17;19.10;99.90
5588;DHT22;2816;49.778;9.986;2023-05-07T10:13:46;19.10;99.90
5588;DHT22;2816;49.778;9.986;2023-05-07T10:16:16;19.50;99.90
5588;DHT22;2816;49.778;9.986;2023-05-07T10:18:43;19.20;99.90
5588;DHT22;2816;49.778;9.986;2023-05-07T10:21:13;19.50;99.90
5588;DHT22;2816;49.778;9.986;2023-05-07T10:23:45;19.40;99.90
5588;DHT22;2816;49.778;9.986;2023-05-07T10:26:13;19.40;99.90
5588;DHT22;2816;49.778;9.986;2023-05-07T10:28:44;19.70;99.90
5588;DHT22;2816;49.778;9.986;2023-05-07T10:31:31;19.90;99.90
5588;DHT22;2816;49.778;9.986;2023-05-07T10:34:08;19.90;99.90
5588;DHT22;2816;49.778;9.986;2023-05-07T10:36:37;19.60;99.90
5588;DHT22;2816;49.778;9.986;2023-05-07T10:39:05;20.30;99.90
5588;DHT22;2816;49.778;9.986;2023-05-07T10:41:32;20.40;99.90
5588;DHT22;2816;49.778;9.986;2023-05-07T10:44:00;20.50;99.90
5588;DHT22;2816;49.778;9.986;2023-05-07T10:46:29;20.60;99.90
5588;DHT22;2816;49.778;9.986;2023-05-07T10:49:09;20.60;99.90
5588;DHT22;2816;49.778;9.986;2023-05-07T10:51:37;20.40;99.90
5588;DHT22;2816;49.778;9.986;2023-05-07T10:54:22;20.60;99.90
5588;DHT22;2816;49.778;9.986;2023-05-07T10:56:50;20.70;99.90
5588;DHT22;2816;49.778;9.986;2023-05-07T10:59:34;20.60;99.90
5588;DHT22;2816;49.778;9.986;2023-05-07T11:02:08;20.60;99.90
5588;DHT22;2816;49.778;9.986;2023-05-07T11:04:37;20.70;99.90
5588;DHT22;2816;49.778;9.986;2023-05-07T11:07:26;20.60;99.90
5588;DHT22;2816;49.778;9.986;2023-05-07T11:09:57;20.70;99.90
5588;DHT22;2816;49.778;9.986;2023-05-07T11:12:54;20.90;99.90
5588;DHT22;2816;49.778;9.986;2023-05-07T11:15:36;21.00;99.90
5588;DHT22;2816;49.778;9.986;2023-05-07T11:18:04;21.10;99.90
5588;DHT22;2816;49.778;9.986;2023-05-07T11:20:48;21.00;99.90
5588;DHT22;2816;49.778;9.986;2023-05-07T11:26:48;21.00;99.90
5588;DHT22;2816;49.778;9.986;2023-05-07T11:29:17;21.10;99.90
5588;DHT22;2816;49.778;9.986;2023-05-07T11:31:48;21.00;99.90
5588;DHT22;2816;49.778;9.986;2023-05-07T11:34:20;21.10;99.90
5588;DHT22;2816;49.778;9.986;2023-05-07T11:36:48;21.10;99.90
5588;DHT22;2816;49.778;9.986;2023-05-07T11:39:26;21.40;99.90
5588;DHT22;2816;49.778;9.986;2023-05-07T11:41:54;21.50;99.90
5588;DHT22;2816;49.778;9.986;2023-05-07T11:44:20;21.40;99.90
5588;DHT22;2816;49.778;9.986;2023-05-07T11:46:48;21.40;99.90
5588;DHT22;2816;49.778;9.986;2023-05-07T11:49:17;21.80;99.90
5588;DHT22;2816;49.778;9.986;2023-05-07T11:51:44;21.80;99.90
5588;DHT22;2816;49.778;9.986;2023-05-07T11:54:16;22.00;99.90
5588;DHT22;2816;49.778;9.986;2023-05-07T11:56:44;22.10;99.90
5588;DHT22;2816;49.778;9.986;2023-05-07T11:59:11;22.30;99.90
5588;DHT22;2816;49.778;9.986;2023-05-07T12:01:38;22.60;99.90
5588;DHT22;2816;49.778;9.986;2023-05-07T12:04:05;22.80;99.90
5588;DHT22;2816;49.778;9.986;2023-05-07T12:06:36;23.00;99.90
5588;DHT22;2816;49.778;9.986;2023-05-07T12:09:03;22.40;99.90
5588;DHT22;2816;49.778;9.986;2023-05-07T12:11:32;22.70;99.90
5588;DHT22;2816;49.778;9.986;2023-05-07T12:13:59;23.10;99.90
5588;DHT22;2816;49.778;9.986;2023-05-07T12:16:27;23.40;99.90
5588;DHT22;2816;49.778;9.986;2023-05-07T12:18:54;23.60;99.70
5588;DHT22;2816;49.778;9.986;2023-05-07T12:21:21;23.60;99.90
5588;DHT22;2816;49.778;9.986;2023-05-07T12:23:50;23.30;99.30
5588;DHT22;2816;49.778;9.986;2023-05-07T12:26:19;23.70;99.80
5588;DHT22;2816;49.778;9.986;2023-05-07T12:28:46;23.70;98.50
5588;DHT22;2816;49.778;9.986;2023-05-07T12:31:14;23.80;98.70
5588;DHT22;2816;49.778;9.986;2023-05-07T12:33:41;23.80;98.60
5588;DHT22;2816;49.778;9.986;2023-05-07T12:36:09;23.50;98.60
5588;DHT22;2816;49.778;9.986;2023-05-07T12:38:39;23.70;98.40
5588;DHT22;2816;49.778;9.986;2023-05-07T12:41:09;23.80;98.30
5588;DHT22;2816;49.778;9.986;2023-05-07T12:43:36;24.20;96.70
5588;DHT22;2816;49.778;9.986;2023-05-07T12:46:05;24.10;97.20
5588;DHT22;2816;49.778;9.986;2023-05-07T12:48:32;24.30;96.80
5588;DHT22;2816;49.778;9.986;2023-05-07T12:51:00;24.20;96.70
5588;DHT22;2816;49.778;9.986;2023-05-07T12:53:28;24.20;96.30
5588;DHT22;2816;49.778;9.986;2023-05-07T12:55:58;24.30;96.10
5588;DHT22;2816;49.778;9.986;2023-05-07T12:58:27;24.30;95.40
5588;DHT22;2816;49.778;9.986;2023-05-07T13:00:56;23.70;96.00
5588;DHT22;2816;49.778;9.986;2023-05-07T13:03:25;24.00;96.00
5588;DHT22;2816;49.778;9.986;2023-05-07T13:05:52;24.20;96.10
5588;DHT22;2816;49.778;9.986;2023-05-07T13:08:24;24.00;95.80
5588;DHT22;2816;49.778;9.986;2023-05-07T13:10:51;23.70;95.90
5588;DHT22;2816;49.778;9.986;2023-05-07T13:13:18;24.00;96.60
5588;DHT22;2816;49.778;9.986;2023-05-07T13:15:47;24.30;95.60
5588;DHT22;2816;49.778;9.986;2023-05-07T13:18:14;24.30;95.70
5588;DHT22;2816;49.778;9.986;2023-05-07T13:20:41;24.20;94.20
5588;DHT22;2816;49.778;9.986;2023-05-07T13:23:08;24.40;94.50
5588;DHT22;2816;49.778;9.986;2023-05-07T13:25:35;24.30;94.60
5588;DHT22;2816;49.778;9.986;2023-05-07T13:28:02;24.70;93.30
5588;DHT22;2816;49.778;9.986;2023-05-07T13:30:30;24.70;92.60
5588;DHT22;2816;49.778;9.986;2023-05-07T13:32:58;24.70;92.90
5588;DHT22;2816;49.778;9.986;2023-05-07T13:35:25;24.80;92.70
5588;DHT22;2816;49.778;9.986;2023-05-07T13:37:52;24.50;92.80
5588;DHT22;2816;49.778;9.986;2023-05-07T13:40:20;24.60;93.70
5588;DHT22;2816;49.778;9.986;2023-05-07T13:42:47;24.50;92.40
5588;DHT22;2816;49.778;9.986;2023-05-07T13:45:14;24.40;92.80
5588;DHT22;2816;49.778;9.986;2023-05-07T13:47:41;24.30;94.60
5588;DHT22;2816;49.778;9.986;2023-05-07T13:50:11;24.20;93.80
5588;DHT22;2816;49.778;9.986;2023-05-07T13:52:40;24.30;93.50
5588;DHT22;2816;49.778;9.986;2023-05-07T13:55:09;24.10;92.50
5588;DHT22;2816;49.778;9.986;2023-05-07T13:57:36;24.30;93.30
5588;DHT22;2816;49.778;9.986;2023-05-07T14:00:04;24.40;94.90
5588;DHT22;2816;49.778;9.986;2023-05-07T14:02:32;24.40;93.50
5588;DHT22;2816;49.778;9.986;2023-05-07T14:04:59;24.50;93.60
5588;DHT22;2816;49.778;9.986;2023-05-07T14:07:27;24.50;93.40
5588;DHT22;2816;49.778;9.986;2023-05-07T14:09:54;24.40;93.70
5588;DHT22;2816;49.778;9.986;2023-05-07T14:12:21;24.60;92.80
5588;DHT22;2816;49.778;9.986;2023-05-07T14:14:48;24.60;93.20
5588;DHT22;2816;49.778;9.986;2023-05-07T14:17:15;24.70;92.90
5588;DHT22;2816;49.778;9.986;2023-05-07T14:19:42;24.70;91.70
5588;DHT22;2816;49.778;9.986;2023-05-07T14:22:09;24.80;91.80
5588;DHT22;2816;49.778;9.986;2023-05-07T14:24:37;24.80;91.70
5588;DHT22;2816;49.778;9.986;2023-05-07T14:27:05;24.70;91.60
5588;DHT22;2816;49.778;9.986;2023-05-07T14:29:32;24.80;91.90
5588;DHT22;2816;49.778;9.986;2023-05-07T14:32:01;24.70;92.10
5588;DHT22;2816;49.778;9.986;2023-05-07T14:34:28;24.80;91.80
5588;DHT22;2816;49.778;9.986;2023-05-07T14:36:54;25.10;91.30
5588;DHT22;2816;49.778;9.986;2023-05-07T14:39:22;25.10;91.80
5588;DHT22;2816;49.778;9.986;2023-05-07T14:41:50;24.70;92.80
5588;DHT22;2816;49.778;9.986;2023-05-07T14:44:17;24.50;92.90
5588;DHT22;2816;49.778;9.986;2023-05-07T14:46:44;24.60;93.30
5588;DHT22;2816;49.778;9.986;2023-05-07T14:49:10;24.40;93.40
5588;DHT22;2816;49.778;9.986;2023-05-07T14:51:42;24.40;93.70
5588;DHT22;2816;49.778;9.986;2023-05-07T14:54:09;24.40;93.60
5588;DHT22;2816;49.778;9.986;2023-05-07T14:56:37;24.30;94.10
5588;DHT22;2816;49.778;9.986;2023-05-07T14:59:05;24.00;94.50
5588;DHT22;2816;49.778;9.986;2023-05-07T15:01:32;23.90;94.40
5588;DHT22;2816;49.778;9.986;2023-05-07T15:04:00;23.80;95.00
5588;DHT22;2816;49.778;9.986;2023-05-07T15:06:27;23.50;94.60
5588;DHT22;2816;49.778;9.986;2023-05-07T15:08:54;23.60;94.00
5588;DHT22;2816;49.778;9.986;2023-05-07T15:11:22;23.60;93.80
5588;DHT22;2816;49.778;9.986;2023-05-07T15:13:49;23.50;94.40
5588;DHT22;2816;49.778;9.986;2023-05-07T15:16:17;23.30;94.40
5588;DHT22;2816;49.778;9.986;2023-05-07T15:18:44;23.10;94.40
5588;DHT22;2816;49.778;9.986;2023-05-07T15:21:12;23.00;94.80
5588;DHT22;2816;49.778;9.986;2023-05-07T15:23:39;22.90;95.30
5588;DHT22;2816;49.778;9.986;2023-05-07T15:26:07;22.80;95.30
5588;DHT22;2816;49.778;9.986;2023-05-07T15:28:34;22.80;95.70
5588;DHT22;2816;49.778;9.986;2023-05-07T15:31:01;22.80;95.60
5588;DHT22;2816;49.778;9.986;2023-05-07T15:33:29;22.70;95.60
5588;DHT22;2816;49.778;9.986;2023-05-07T15:35:56;22.60;95.90
5588;DHT22;2816;49.778;9.986;2023-05-07T15:38:24;22.50;96.00
5588;DHT22;2816;49.778;9.986;2023-05-07T15:40:51;22.40;96.20
5588;DHT22;2816;49.778;9.986;2023-05-07T15:43:18;22.30;96.40
5588;DHT22;2816;49.778;9.986;2023-05-07T15:45:46;22.30;96.20
5588;DHT22;2816;49.778;9.986;2023-05-07T15:48:13;22.20;96.40
5588;DHT22;2816;49.778;9.986;2023-05-07T15:50:41;22.10;96.20
5588;DHT22;2816;49.778;9.986;2023-05-07T15:53:08;22.10;96.50
5588;DHT22;2816;49.778;9.986;2023-05-07T15:55:35;22.00;96.60
5588;DHT22;2816;49.778;9.986;2023-05-07T15:58:02;22.00;96.70
5588;DHT22;2816;49.778;9.986;2023-05-07T16:00:31;21.90;96.90
5588;DHT22;2816;49.778;9.986;2023-05-07T16:03:00;21.80;97.00
5588;DHT22;2816;49.778;9.986;2023-05-07T16:05:27;21.80;97.30
5588;DHT22;2816;49.778;9.986;2023-05-07T16:07:55;21.60;97.40
5588;DHT22;2816;49.778;9.986;2023-05-07T16:10:23;21.70;97.80